Mbabane, Swaziland
Current Conditions -  °F | °C
As of 8:00 PM on Monday 22 Dec 2014 (Local Time) from FAKN Reporting Station
Broken Clouds Broken Clouds  
Wind Chill: 70°   Ceiling: 1500
Heat Index: 70°   Visibility: 6mi
Dew Point: 64°   Wind: 9mph
Humidity: 83%   Direction: 260°W
Pressure: 30.09"   Gusts: NA
Location:  26.32°S, 31.14°E
Report Text: FAKN 221800Z 26008KT 9999 SCT010 BKN015 21/18 Q1019 NOSIG
Loading
Personal Weather Stations






























Interactive Weather Map New forecast layout! Learn more

10-Day Weather Forecast

Advertisements
Track Severe Weather on mobile